sensor_id;sensor_type;location;lat;lon;timestamp;P1;durP1;ratioP1;P2;durP2;ratioP2
18776;SDS011;9517;51.174;4.160;2022-07-23T00:00:20;21.00;;;13.43;;
18776;SDS011;9517;51.174;4.160;2022-07-23T00:02:49;23.73;;;13.57;;
18776;SDS011;9517;51.174;4.160;2022-07-23T00:05:16;25.00;;;13.60;;
18776;SDS011;9517;51.174;4.160;2022-07-23T00:07:43;30.53;;;14.07;;
18776;SDS011;9517;51.174;4.160;2022-07-23T00:10:10;23.77;;;13.33;;
18776;SDS011;9517;51.174;4.160;2022-07-23T00:12:38;24.80;;;13.07;;
18776;SDS011;9517;51.174;4.160;2022-07-23T00:15:06;24.10;;;13.80;;
18776;SDS011;9517;51.174;4.160;2022-07-23T00:17:34;22.13;;;12.87;;
18776;SDS011;9517;51.174;4.160;2022-07-23T00:20:03;21.17;;;12.37;;
18776;SDS011;9517;51.174;4.160;2022-07-23T00:22:31;20.80;;;11.50;;
18776;SDS011;9517;51.174;4.160;2022-07-23T00:24:58;20.50;;;11.27;;
18776;SDS011;9517;51.174;4.160;2022-07-23T00:27:25;18.77;;;11.00;;
18776;SDS011;9517;51.174;4.160;2022-07-23T00:29:52;20.67;;;11.50;;
18776;SDS011;9517;51.174;4.160;2022-07-23T00:32:19;20.33;;;11.40;;
18776;SDS011;9517;51.174;4.160;2022-07-23T00:34:46;20.33;;;11.47;;
18776;SDS011;9517;51.174;4.160;2022-07-23T00:37:15;18.90;;;11.27;;
18776;SDS011;9517;51.174;4.160;2022-07-23T00:39:42;17.77;;;11.43;;
18776;SDS011;9517;51.174;4.160;2022-07-23T00:42:09;21.70;;;10.97;;
18776;SDS011;9517;51.174;4.160;2022-07-23T00:44:36;20.73;;;11.10;;
18776;SDS011;9517;51.174;4.160;2022-07-23T00:47:03;19.53;;;10.53;;
18776;SDS011;9517;51.174;4.160;2022-07-23T00:49:31;16.47;;;10.80;;
18776;SDS011;9517;51.174;4.160;2022-07-23T00:51:58;16.77;;;10.27;;
18776;SDS011;9517;51.174;4.160;2022-07-23T00:54:30;20.73;;;11.23;;
18776;SDS011;9517;51.174;4.160;2022-07-23T00:56:57;18.13;;;10.93;;
18776;SDS011;9517;51.174;4.160;2022-07-23T00:59:24;19.33;;;10.80;;
18776;SDS011;9517;51.174;4.160;2022-07-23T01:01:51;19.47;;;11.20;;
18776;SDS011;9517;51.174;4.160;2022-07-23T01:04:18;18.60;;;10.70;;
18776;SDS011;9517;51.174;4.160;2022-07-23T01:06:45;18.97;;;10.50;;
18776;SDS011;9517;51.174;4.160;2022-07-23T01:09:13;16.03;;;10.40;;
18776;SDS011;9517;51.174;4.160;2022-07-23T01:11:41;18.23;;;9.90;;
18776;SDS011;9517;51.174;4.160;2022-07-23T01:14:10;17.70;;;10.30;;
18776;SDS011;9517;51.174;4.160;2022-07-23T01:16:38;20.80;;;11.40;;
18776;SDS011;9517;51.174;4.160;2022-07-23T01:19:06;22.43;;;9.90;;
18776;SDS011;9517;51.174;4.160;2022-07-23T01:21:37;16.30;;;10.07;;
18776;SDS011;9517;51.174;4.160;2022-07-23T01:24:07;19.70;;;10.30;;
18776;SDS011;9517;51.174;4.160;2022-07-23T01:26:35;18.13;;;9.60;;
18776;SDS011;9517;51.174;4.160;2022-07-23T01:29:03;17.07;;;10.03;;
18776;SDS011;9517;51.174;4.160;2022-07-23T01:31:31;17.97;;;10.97;;
18776;SDS011;9517;51.174;4.160;2022-07-23T01:33:58;19.87;;;11.20;;
18776;SDS011;9517;51.174;4.160;2022-07-23T01:36:26;20.33;;;11.57;;
18776;SDS011;9517;51.174;4.160;2022-07-23T01:38:53;19.83;;;11.03;;
18776;SDS011;9517;51.174;4.160;2022-07-23T01:41:21;20.93;;;12.10;;
18776;SDS011;9517;51.174;4.160;2022-07-23T01:43:49;19.43;;;11.23;;
18776;SDS011;9517;51.174;4.160;2022-07-23T01:46:16;19.93;;;12.13;;
18776;SDS011;9517;51.174;4.160;2022-07-23T01:48:43;19.97;;;12.07;;
18776;SDS011;9517;51.174;4.160;2022-07-23T01:51:10;20.03;;;12.07;;
18776;SDS011;9517;51.174;4.160;2022-07-23T01:53:37;19.57;;;11.80;;
18776;SDS011;9517;51.174;4.160;2022-07-23T01:56:05;18.67;;;11.60;;
18776;SDS011;9517;51.174;4.160;2022-07-23T01:58:34;21.03;;;12.57;;
18776;SDS011;9517;51.174;4.160;2022-07-23T02:01:02;17.97;;;10.87;;
18776;SDS011;9517;51.174;4.160;2022-07-23T02:03:29;18.63;;;11.07;;
18776;SDS011;9517;51.174;4.160;2022-07-23T02:05:57;19.17;;;11.57;;
18776;SDS011;9517;51.174;4.160;2022-07-23T02:08:24;17.30;;;10.90;;
18776;SDS011;9517;51.174;4.160;2022-07-23T02:10:52;16.50;;;11.03;;
18776;SDS011;9517;51.174;4.160;2022-07-23T02:13:19;18.50;;;11.17;;
18776;SDS011;9517;51.174;4.160;2022-07-23T02:15:48;16.30;;;10.47;;
18776;SDS011;9517;51.174;4.160;2022-07-23T02:18:15;17.60;;;10.77;;
18776;SDS011;9517;51.174;4.160;2022-07-23T02:20:42;17.20;;;11.10;;
18776;SDS011;9517;51.174;4.160;2022-07-23T02:23:09;20.27;;;11.10;;
18776;SDS011;9517;51.174;4.160;2022-07-23T02:25:36;20.67;;;10.93;;
18776;SDS011;9517;51.174;4.160;2022-07-23T02:28:04;20.97;;;12.00;;
18776;SDS011;9517;51.174;4.160;2022-07-23T02:30:31;20.63;;;11.87;;
18776;SDS011;9517;51.174;4.160;2022-07-23T02:33:00;23.83;;;12.17;;
18776;SDS011;9517;51.174;4.160;2022-07-23T02:35:27;21.70;;;12.53;;
18776;SDS011;9517;51.174;4.160;2022-07-23T02:37:54;23.53;;;11.77;;
18776;SDS011;9517;51.174;4.160;2022-07-23T02:40:21;22.63;;;11.97;;
18776;SDS011;9517;51.174;4.160;2022-07-23T02:42:48;19.00;;;11.17;;
18776;SDS011;9517;51.174;4.160;2022-07-23T02:45:15;19.10;;;12.07;;
18776;SDS011;9517;51.174;4.160;2022-07-23T02:47:43;19.83;;;11.47;;
18776;SDS011;9517;51.174;4.160;2022-07-23T02:50:14;17.57;;;11.03;;
18776;SDS011;9517;51.174;4.160;2022-07-23T02:52:41;21.10;;;11.73;;
18776;SDS011;9517;51.174;4.160;2022-07-23T02:55:08;22.97;;;11.23;;
18776;SDS011;9517;51.174;4.160;2022-07-23T02:57:36;20.53;;;11.87;;
18776;SDS011;9517;51.174;4.160;2022-07-23T03:00:03;20.90;;;11.60;;
18776;SDS011;9517;51.174;4.160;2022-07-23T03:02:32;21.80;;;11.60;;
18776;SDS011;9517;51.174;4.160;2022-07-23T03:04:59;19.97;;;11.87;;
18776;SDS011;9517;51.174;4.160;2022-07-23T03:07:28;22.63;;;12.30;;
18776;SDS011;9517;51.174;4.160;2022-07-23T03:09:55;18.87;;;11.73;;
18776;SDS011;9517;51.174;4.160;2022-07-23T03:12:22;21.87;;;12.33;;
18776;SDS011;9517;51.174;4.160;2022-07-23T03:14:49;19.93;;;12.47;;
18776;SDS011;9517;51.174;4.160;2022-07-23T03:17:16;19.07;;;11.23;;
18776;SDS011;9517;51.174;4.160;2022-07-23T03:19:44;21.70;;;11.73;;
18776;SDS011;9517;51.174;4.160;2022-07-23T03:22:11;17.17;;;11.13;;
18776;SDS011;9517;51.174;4.160;2022-07-23T03:24:39;19.67;;;11.67;;
18776;SDS011;9517;51.174;4.160;2022-07-23T03:27:22;21.70;;;11.77;;
18776;SDS011;9517;51.174;4.160;2022-07-23T03:29:49;17.97;;;10.83;;
18776;SDS011;9517;51.174;4.160;2022-07-23T03:32:17;20.83;;;11.67;;
18776;SDS011;9517;51.174;4.160;2022-07-23T03:34:44;22.77;;;12.33;;
18776;SDS011;9517;51.174;4.160;2022-07-23T03:37:11;19.20;;;12.23;;
18776;SDS011;9517;51.174;4.160;2022-07-23T03:39:40;20.60;;;11.30;;
18776;SDS011;9517;51.174;4.160;2022-07-23T03:42:07;26.03;;;12.03;;
18776;SDS011;9517;51.174;4.160;2022-07-23T03:44:34;19.90;;;11.53;;
18776;SDS011;9517;51.174;4.160;2022-07-23T03:47:03;19.33;;;11.43;;
18776;SDS011;9517;51.174;4.160;2022-07-23T03:49:31;19.67;;;11.20;;
18776;SDS011;9517;51.174;4.160;2022-07-23T03:51:58;19.07;;;11.20;;
18776;SDS011;9517;51.174;4.160;2022-07-23T03:54:26;21.60;;;12.13;;
18776;SDS011;9517;51.174;4.160;2022-07-23T03:56:55;18.43;;;11.53;;
18776;SDS011;9517;51.174;4.160;2022-07-23T03:59:22;21.03;;;11.97;;
18776;SDS011;9517;51.174;4.160;2022-07-23T04:01:49;19.10;;;11.40;;
18776;SDS011;9517;51.174;4.160;2022-07-23T04:04:16;17.03;;;11.20;;
18776;SDS011;9517;51.174;4.160;2022-07-23T04:06:43;18.90;;;11.30;;
18776;SDS011;9517;51.174;4.160;2022-07-23T04:09:10;21.53;;;11.53;;
18776;SDS011;9517;51.174;4.160;2022-07-23T04:11:38;18.33;;;11.17;;
18776;SDS011;9517;51.174;4.160;2022-07-23T04:14:06;19.90;;;10.87;;
18776;SDS011;9517;51.174;4.160;2022-07-23T04:16:34;17.30;;;10.60;;
18776;SDS011;9517;51.174;4.160;2022-07-23T04:19:03;18.07;;;11.40;;
18776;SDS011;9517;51.174;4.160;2022-07-23T04:21:34;16.47;;;11.07;;
18776;SDS011;9517;51.174;4.160;2022-07-23T04:24:01;17.43;;;10.80;;
18776;SDS011;9517;51.174;4.160;2022-07-23T04:26:28;20.17;;;11.40;;
18776;SDS011;9517;51.174;4.160;2022-07-23T04:28:55;21.20;;;12.53;;
18776;SDS011;9517;51.174;4.160;2022-07-23T04:31:24;19.67;;;12.17;;
18776;SDS011;9517;51.174;4.160;2022-07-23T04:33:51;19.37;;;10.93;;
18776;SDS011;9517;51.174;4.160;2022-07-23T04:36:18;20.90;;;11.70;;
18776;SDS011;9517;51.174;4.160;2022-07-23T04:38:45;19.70;;;11.87;;
18776;SDS011;9517;51.174;4.160;2022-07-23T04:41:12;17.47;;;11.40;;
18776;SDS011;9517;51.174;4.160;2022-07-23T04:43:39;16.57;;;10.77;;
18776;SDS011;9517;51.174;4.160;2022-07-23T04:46:06;21.90;;;10.57;;
18776;SDS011;9517;51.174;4.160;2022-07-23T04:48:37;16.87;;;10.77;;
18776;SDS011;9517;51.174;4.160;2022-07-23T04:51:04;16.73;;;10.37;;
18776;SDS011;9517;51.174;4.160;2022-07-23T04:53:31;17.93;;;10.70;;
18776;SDS011;9517;51.174;4.160;2022-07-23T04:55:59;19.83;;;11.40;;
18776;SDS011;9517;51.174;4.160;2022-07-23T04:58:26;19.47;;;11.00;;
18776;SDS011;9517;51.174;4.160;2022-07-23T05:00:53;18.77;;;11.23;;
18776;SDS011;9517;51.174;4.160;2022-07-23T05:03:22;18.60;;;10.87;;
18776;SDS011;9517;51.174;4.160;2022-07-23T05:05:51;18.43;;;10.30;;
18776;SDS011;9517;51.174;4.160;2022-07-23T05:08:18;20.87;;;10.60;;
18776;SDS011;9517;51.174;4.160;2022-07-23T05:10:45;19.10;;;11.60;;
18776;SDS011;9517;51.174;4.160;2022-07-23T05:13:13;20.77;;;11.57;;
18776;SDS011;9517;51.174;4.160;2022-07-23T05:15:41;27.03;;;11.73;;
18776;SDS011;9517;51.174;4.160;2022-07-23T05:18:09;18.97;;;11.37;;
18776;SDS011;9517;51.174;4.160;2022-07-23T05:20:36;18.10;;;11.90;;
18776;SDS011;9517;51.174;4.160;2022-07-23T05:23:04;20.90;;;12.70;;
18776;SDS011;9517;51.174;4.160;2022-07-23T05:25:31;24.53;;;12.43;;
18776;SDS011;9517;51.174;4.160;2022-07-23T05:27:58;22.17;;;12.03;;
18776;SDS011;9517;51.174;4.160;2022-07-23T05:30:26;21.50;;;11.87;;
18776;SDS011;9517;51.174;4.160;2022-07-23T05:32:53;18.83;;;11.70;;
18776;SDS011;9517;51.174;4.160;2022-07-23T05:35:20;20.10;;;11.97;;
18776;SDS011;9517;51.174;4.160;2022-07-23T05:37:47;20.03;;;11.60;;
18776;SDS011;9517;51.174;4.160;2022-07-23T05:40:16;25.80;;;13.57;;
18776;SDS011;9517;51.174;4.160;2022-07-23T05:42:43;24.57;;;12.47;;
18776;SDS011;9517;51.174;4.160;2022-07-23T05:45:10;22.50;;;13.07;;
18776;SDS011;9517;51.174;4.160;2022-07-23T05:47:41;25.77;;;14.17;;
18776;SDS011;9517;51.174;4.160;2022-07-23T05:50:10;24.53;;;13.57;;
18776;SDS011;9517;51.174;4.160;2022-07-23T05:52:38;23.57;;;14.37;;
18776;SDS011;9517;51.174;4.160;2022-07-23T05:55:05;21.57;;;12.43;;
18776;SDS011;9517;51.174;4.160;2022-07-23T05:57:35;20.17;;;13.10;;
18776;SDS011;9517;51.174;4.160;2022-07-23T06:00:03;22.67;;;12.77;;
18776;SDS011;9517;51.174;4.160;2022-07-23T06:02:32;21.23;;;11.87;;
18776;SDS011;9517;51.174;4.160;2022-07-23T06:05:00;20.93;;;12.10;;
18776;SDS011;9517;51.174;4.160;2022-07-23T06:07:27;21.40;;;12.37;;
18776;SDS011;9517;51.174;4.160;2022-07-23T06:09:54;20.73;;;11.63;;
18776;SDS011;9517;51.174;4.160;2022-07-23T06:12:21;20.37;;;12.07;;
18776;SDS011;9517;51.174;4.160;2022-07-23T06:14:51;19.07;;;11.87;;
18776;SDS011;9517;51.174;4.160;2022-07-23T06:17:18;20.03;;;11.33;;
18776;SDS011;9517;51.174;4.160;2022-07-23T06:19:45;21.37;;;12.00;;
18776;SDS011;9517;51.174;4.160;2022-07-23T06:22:12;17.40;;;10.77;;
18776;SDS011;9517;51.174;4.160;2022-07-23T06:24:39;21.23;;;11.40;;
18776;SDS011;9517;51.174;4.160;2022-07-23T06:27:06;20.53;;;11.03;;
18776;SDS011;9517;51.174;4.160;2022-07-23T06:29:33;18.93;;;10.83;;
18776;SDS011;9517;51.174;4.160;2022-07-23T06:32:02;23.73;;;11.17;;
18776;SDS011;9517;51.174;4.160;2022-07-23T06:34:29;20.33;;;10.50;;
18776;SDS011;9517;51.174;4.160;2022-07-23T06:36:56;18.60;;;10.83;;
18776;SDS011;9517;51.174;4.160;2022-07-23T06:39:23;16.53;;;9.27;;
18776;SDS011;9517;51.174;4.160;2022-07-23T06:41:50;19.73;;;10.50;;
18776;SDS011;9517;51.174;4.160;2022-07-23T06:44:18;20.37;;;10.83;;
18776;SDS011;9517;51.174;4.160;2022-07-23T06:46:45;16.73;;;9.70;;
18776;SDS011;9517;51.174;4.160;2022-07-23T06:49:13;17.47;;;9.43;;
18776;SDS011;9517;51.174;4.160;2022-07-23T06:51:40;14.63;;;8.77;;
18776;SDS011;9517;51.174;4.160;2022-07-23T06:54:07;14.97;;;7.83;;
18776;SDS011;9517;51.174;4.160;2022-07-23T06:56:34;14.87;;;7.37;;
18776;SDS011;9517;51.174;4.160;2022-07-23T06:59:01;16.87;;;8.67;;
18776;SDS011;9517;51.174;4.160;2022-07-23T07:01:28;16.93;;;7.50;;
18776;SDS011;9517;51.174;4.160;2022-07-23T07:03:55;14.43;;;6.70;;
18776;SDS011;9517;51.174;4.160;2022-07-23T07:06:23;15.50;;;6.90;;
18776;SDS011;9517;51.174;4.160;2022-07-23T07:08:50;14.20;;;6.70;;
18776;SDS011;9517;51.174;4.160;2022-07-23T07:11:18;12.70;;;6.30;;
18776;SDS011;9517;51.174;4.160;2022-07-23T07:13:44;14.17;;;5.87;;
18776;SDS011;9517;51.174;4.160;2022-07-23T07:16:12;14.07;;;6.83;;
18776;SDS011;9517;51.174;4.160;2022-07-23T07:18:38;13.77;;;6.63;;
18776;SDS011;9517;51.174;4.160;2022-07-23T07:21:05;18.77;;;7.63;;
18776;SDS011;9517;51.174;4.160;2022-07-23T07:23:34;10.97;;;6.13;;
18776;SDS011;9517;51.174;4.160;2022-07-23T07:26:01;12.80;;;6.93;;
18776;SDS011;9517;51.174;4.160;2022-07-23T07:28:28;15.53;;;6.20;;
18776;SDS011;9517;51.174;4.160;2022-07-23T07:30:55;13.73;;;6.90;;
18776;SDS011;9517;51.174;4.160;2022-07-23T07:33:22;12.63;;;6.57;;
18776;SDS011;9517;51.174;4.160;2022-07-23T07:35:49;14.67;;;7.07;;
18776;SDS011;9517;51.174;4.160;2022-07-23T07:38:16;20.07;;;7.57;;
18776;SDS011;9517;51.174;4.160;2022-07-23T07:40:44;12.90;;;6.37;;
18776;SDS011;9517;51.174;4.160;2022-07-23T07:43:11;14.73;;;7.20;;
18776;SDS011;9517;51.174;4.160;2022-07-23T07:45:38;17.80;;;7.60;;
18776;SDS011;9517;51.174;4.160;2022-07-23T07:48:05;16.27;;;6.57;;
18776;SDS011;9517;51.174;4.160;2022-07-23T07:50:32;13.30;;;6.70;;
18776;SDS011;9517;51.174;4.160;2022-07-23T07:52:59;15.23;;;7.13;;
18776;SDS011;9517;51.174;4.160;2022-07-23T07:55:26;16.10;;;7.10;;
18776;SDS011;9517;51.174;4.160;2022-07-23T07:57:55;14.03;;;6.57;;
18776;SDS011;9517;51.174;4.160;2022-07-23T08:00:22;13.10;;;6.67;;
18776;SDS011;9517;51.174;4.160;2022-07-23T08:02:49;13.10;;;6.23;;
18776;SDS011;9517;51.174;4.160;2022-07-23T08:05:18;12.80;;;6.50;;
18776;SDS011;9517;51.174;4.160;2022-07-23T08:07:46;14.80;;;6.60;;
18776;SDS011;9517;51.174;4.160;2022-07-23T08:10:13;15.50;;;7.23;;
18776;SDS011;9517;51.174;4.160;2022-07-23T08:12:41;13.67;;;6.17;;
18776;SDS011;9517;51.174;4.160;2022-07-23T08:15:12;16.50;;;6.70;;
18776;SDS011;9517;51.174;4.160;2022-07-23T08:17:40;14.50;;;6.33;;
18776;SDS011;9517;51.174;4.160;2022-07-23T08:20:08;14.83;;;7.30;;
18776;SDS011;9517;51.174;4.160;2022-07-23T08:22:47;15.53;;;6.70;;
18776;SDS011;9517;51.174;4.160;2022-07-23T08:25:15;15.07;;;6.83;;
18776;SDS011;9517;51.174;4.160;2022-07-23T08:27:45;12.90;;;5.50;;
18776;SDS011;9517;51.174;4.160;2022-07-23T08:30:15;12.30;;;6.00;;
18776;SDS011;9517;51.174;4.160;2022-07-23T08:32:56;15.00;;;6.27;;
18776;SDS011;9517;51.174;4.160;2022-07-23T08:35:26;14.60;;;6.80;;
18776;SDS011;9517;51.174;4.160;2022-07-23T08:37:55;12.23;;;5.77;;
18776;SDS011;9517;51.174;4.160;2022-07-23T08:40:23;11.37;;;5.80;;
18776;SDS011;9517;51.174;4.160;2022-07-23T08:42:52;12.33;;;6.27;;
18776;SDS011;9517;51.174;4.160;2022-07-23T08:45:22;14.90;;;6.00;;
18776;SDS011;9517;51.174;4.160;2022-07-23T08:47:51;13.47;;;5.80;;
18776;SDS011;9517;51.174;4.160;2022-07-23T08:50:20;12.85;;;5.60;;
18776;SDS011;9517;51.174;4.160;2022-07-23T08:52:47;12.18;;;5.22;;
18776;SDS011;9517;51.174;4.160;2022-07-23T08:55:16;13.13;;;5.43;;
18776;SDS011;9517;51.174;4.160;2022-07-23T08:57:43;10.88;;;4.95;;
18776;SDS011;9517;51.174;4.160;2022-07-23T09:00:11;13.43;;;5.15;;
18776;SDS011;9517;51.174;4.160;2022-07-23T09:02:41;13.20;;;5.28;;
18776;SDS011;9517;51.174;4.160;2022-07-23T09:05:09;15.85;;;5.60;;
18776;SDS011;9517;51.174;4.160;2022-07-23T09:07:37;8.90;;;4.38;;
18776;SDS011;9517;51.174;4.160;2022-07-23T09:10:24;11.50;;;4.95;;
18776;SDS011;9517;51.174;4.160;2022-07-23T09:12:51;11.35;;;5.03;;
18776;SDS011;9517;51.174;4.160;2022-07-23T09:15:18;11.48;;;5.70;;
18776;SDS011;9517;51.174;4.160;2022-07-23T09:17:46;12.23;;;5.32;;
18776;SDS011;9517;51.174;4.160;2022-07-23T09:20:14;10.88;;;4.80;;
18776;SDS011;9517;51.174;4.160;2022-07-23T09:22:44;15.75;;;5.40;;
18776;SDS011;9517;51.174;4.160;2022-07-23T09:25:12;12.57;;;5.03;;
18776;SDS011;9517;51.174;4.160;2022-07-23T09:27:51;13.15;;;5.10;;
18776;SDS011;9517;51.174;4.160;2022-07-23T09:30:20;13.00;;;5.22;;
18776;SDS011;9517;51.174;4.160;2022-07-23T09:33:06;10.90;;;5.05;;
18776;SDS011;9517;51.174;4.160;2022-07-23T09:35:44;11.40;;;4.78;;
18776;SDS011;9517;51.174;4.160;2022-07-23T09:38:13;10.60;;;4.43;;
18776;SDS011;9517;51.174;4.160;2022-07-23T09:40:40;9.60;;;5.18;;
18776;SDS011;9517;51.174;4.160;2022-07-23T09:43:08;10.65;;;4.65;;
18776;SDS011;9517;51.174;4.160;2022-07-23T09:45:36;14.73;;;5.13;;
18776;SDS011;9517;51.174;4.160;2022-07-23T09:48:11;13.02;;;4.38;;
18776;SDS011;9517;51.174;4.160;2022-07-23T09:50:39;11.15;;;4.53;;
18776;SDS011;9517;51.174;4.160;2022-07-23T09:53:07;12.23;;;4.65;;
18776;SDS011;9517;51.174;4.160;2022-07-23T09:55:35;12.70;;;4.82;;
18776;SDS011;9517;51.174;4.160;2022-07-23T09:58:03;10.27;;;4.68;;
18776;SDS011;9517;51.174;4.160;2022-07-23T10:00:32;16.55;;;5.25;;
18776;SDS011;9517;51.174;4.160;2022-07-23T10:03:00;10.23;;;4.32;;
18776;SDS011;9517;51.174;4.160;2022-07-23T10:05:31;9.52;;;4.32;;
18776;SDS011;9517;51.174;4.160;2022-07-23T10:07:59;10.15;;;3.55;;
18776;SDS011;9517;51.174;4.160;2022-07-23T10:10:28;10.73;;;3.83;;
18776;SDS011;9517;51.174;4.160;2022-07-23T10:12:56;9.75;;;3.30;;
18776;SDS011;9517;51.174;4.160;2022-07-23T10:15:37;9.85;;;4.40;;
18776;SDS011;9517;51.174;4.160;2022-07-23T10:18:07;9.23;;;3.97;;
18776;SDS011;9517;51.174;4.160;2022-07-23T10:20:37;8.90;;;3.72;;
18776;SDS011;9517;51.174;4.160;2022-07-23T10:23:11;10.45;;;4.50;;
18776;SDS011;9517;51.174;4.160;2022-07-23T10:25:46;10.77;;;3.80;;
18776;SDS011;9517;51.174;4.160;2022-07-23T10:31:25;10.32;;;3.70;;
18776;SDS011;9517;51.174;4.160;2022-07-23T10:33:59;8.63;;;4.00;;
18776;SDS011;9517;51.174;4.160;2022-07-23T10:36:37;9.25;;;3.70;;
18776;SDS011;9517;51.174;4.160;2022-07-23T10:39:13;9.35;;;3.90;;
18776;SDS011;9517;51.174;4.160;2022-07-23T10:41:45;8.88;;;3.20;;
18776;SDS011;9517;51.174;4.160;2022-07-23T10:44:12;10.23;;;3.90;;
18776;SDS011;9517;51.174;4.160;2022-07-23T10:46:56;8.30;;;3.80;;
18776;SDS011;9517;51.174;4.160;2022-07-23T10:49:33;9.23;;;3.80;;
18776;SDS011;9517;51.174;4.160;2022-07-23T10:52:18;10.30;;;4.32;;
18776;SDS011;9517;51.174;4.160;2022-07-23T10:54:50;8.75;;;3.60;;
18776;SDS011;9517;51.174;4.160;2022-07-23T10:57:18;7.50;;;3.25;;
18776;SDS011;9517;51.174;4.160;2022-07-23T11:02:43;9.38;;;4.32;;
18776;SDS011;9517;51.174;4.160;2022-07-23T11:05:13;10.60;;;4.75;;
18776;SDS011;9517;51.174;4.160;2022-07-23T11:10:40;8.15;;;3.30;;
18776;SDS011;9517;51.174;4.160;2022-07-23T11:13:32;12.82;;;3.90;;
18776;SDS011;9517;51.174;4.160;2022-07-23T11:16:04;9.80;;;4.15;;
18776;SDS011;9517;51.174;4.160;2022-07-23T11:19:03;9.02;;;3.45;;
18776;SDS011;9517;51.174;4.160;2022-07-23T11:21:48;9.68;;;3.58;;
18776;SDS011;9517;51.174;4.160;2022-07-23T11:24:18;8.02;;;2.90;;
18776;SDS011;9517;51.174;4.160;2022-07-23T11:26:48;9.05;;;2.70;;
18776;SDS011;9517;51.174;4.160;2022-07-23T11:32:08;6.93;;;2.80;;
18776;SDS011;9517;51.174;4.160;2022-07-23T11:35:00;7.13;;;2.95;;
18776;SDS011;9517;51.174;4.160;2022-07-23T11:37:28;10.75;;;2.60;;
18776;SDS011;9517;51.174;4.160;2022-07-23T11:40:03;7.90;;;2.80;;
18776;SDS011;9517;51.174;4.160;2022-07-23T11:42:33;5.85;;;2.20;;
18776;SDS011;9517;51.174;4.160;2022-07-23T11:45:00;5.57;;;2.20;;
18776;SDS011;9517;51.174;4.160;2022-07-23T11:47:27;5.85;;;1.90;;
18776;SDS011;9517;51.174;4.160;2022-07-23T11:49:54;5.50;;;2.00;;
18776;SDS011;9517;51.174;4.160;2022-07-23T11:52:22;2.95;;;1.52;;
18776;SDS011;9517;51.174;4.160;2022-07-23T11:54:52;4.03;;;1.52;;
18776;SDS011;9517;51.174;4.160;2022-07-23T11:57:23;5.60;;;1.65;;
18776;SDS011;9517;51.174;4.160;2022-07-23T11:59:52;3.63;;;1.40;;
18776;SDS011;9517;51.174;4.160;2022-07-23T12:02:23;4.25;;;1.30;;
18776;SDS011;9517;51.174;4.160;2022-07-23T12:04:51;4.90;;;1.50;;
18776;SDS011;9517;51.174;4.160;2022-07-23T12:07:22;6.00;;;1.60;;
18776;SDS011;9517;51.174;4.160;2022-07-23T12:09:58;7.78;;;1.73;;
18776;SDS011;9517;51.174;4.160;2022-07-23T12:12:27;4.80;;;1.92;;
18776;SDS011;9517;51.174;4.160;2022-07-23T12:15:02;5.82;;;2.20;;
18776;SDS011;9517;51.174;4.160;2022-07-23T12:17:31;6.30;;;1.95;;
18776;SDS011;9517;51.174;4.160;2022-07-23T12:19:59;4.13;;;1.52;;
18776;SDS011;9517;51.174;4.160;2022-07-23T12:22:33;5.15;;;1.90;;
18776;SDS011;9517;51.174;4.160;2022-07-23T12:25:02;5.38;;;1.80;;
18776;SDS011;9517;51.174;4.160;2022-07-23T12:27:33;6.05;;;2.13;;
18776;SDS011;9517;51.174;4.160;2022-07-23T12:30:14;5.72;;;2.00;;
18776;SDS011;9517;51.174;4.160;2022-07-23T12:32:43;6.75;;;2.10;;
18776;SDS011;9517;51.174;4.160;2022-07-23T12:35:11;5.18;;;2.03;;
18776;SDS011;9517;51.174;4.160;2022-07-23T12:37:38;5.95;;;2.03;;
18776;SDS011;9517;51.174;4.160;2022-07-23T12:40:21;4.43;;;1.77;;
18776;SDS011;9517;51.174;4.160;2022-07-23T12:42:52;6.15;;;2.03;;
18776;SDS011;9517;51.174;4.160;2022-07-23T12:45:21;5.45;;;1.98;;
18776;SDS011;9517;51.174;4.160;2022-07-23T12:47:51;7.03;;;2.40;;
18776;SDS011;9517;51.174;4.160;2022-07-23T12:50:34;5.35;;;2.25;;
18776;SDS011;9517;51.174;4.160;2022-07-23T12:53:06;5.05;;;2.30;;
18776;SDS011;9517;51.174;4.160;2022-07-23T12:55:35;7.38;;;2.50;;
18776;SDS011;9517;51.174;4.160;2022-07-23T12:58:05;5.82;;;2.40;;
18776;SDS011;9517;51.174;4.160;2022-07-23T13:00:55;6.03;;;1.92;;
18776;SDS011;9517;51.174;4.160;2022-07-23T13:03:26;5.88;;;2.53;;
18776;SDS011;9517;51.174;4.160;2022-07-23T13:05:55;6.63;;;2.20;;
18776;SDS011;9517;51.174;4.160;2022-07-23T13:08:23;3.97;;;2.15;;
18776;SDS011;9517;51.174;4.160;2022-07-23T13:10:51;6.40;;;2.58;;
18776;SDS011;9517;51.174;4.160;2022-07-23T13:13:24;5.68;;;2.30;;
18776;SDS011;9517;51.174;4.160;2022-07-23T13:15:53;5.95;;;2.33;;
18776;SDS011;9517;51.174;4.160;2022-07-23T13:18:20;6.07;;;2.78;;
18776;SDS011;9517;51.174;4.160;2022-07-23T13:20:47;5.32;;;2.40;;
18776;SDS011;9517;51.174;4.160;2022-07-23T13:23:15;7.55;;;2.80;;
18776;SDS011;9517;51.174;4.160;2022-07-23T13:25:43;7.72;;;2.53;;
18776;SDS011;9517;51.174;4.160;2022-07-23T13:28:10;5.53;;;2.78;;
18776;SDS011;9517;51.174;4.160;2022-07-23T13:30:38;5.75;;;2.63;;
18776;SDS011;9517;51.174;4.160;2022-07-23T13:33:06;5.75;;;2.38;;
18776;SDS011;9517;51.174;4.160;2022-07-23T13:35:34;9.70;;;2.90;;
18776;SDS011;9517;51.174;4.160;2022-07-23T13:38:03;6.47;;;3.25;;
18776;SDS011;9517;51.174;4.160;2022-07-23T13:40:32;8.95;;;3.40;;
18776;SDS011;9517;51.174;4.160;2022-07-23T13:42:59;8.13;;;2.85;;
18776;SDS011;9517;51.174;4.160;2022-07-23T13:45:27;7.30;;;3.00;;
18776;SDS011;9517;51.174;4.160;2022-07-23T13:47:55;7.80;;;3.42;;
18776;SDS011;9517;51.174;4.160;2022-07-23T13:50:22;7.68;;;2.53;;
18776;SDS011;9517;51.174;4.160;2022-07-23T13:52:50;6.50;;;2.95;;
18776;SDS011;9517;51.174;4.160;2022-07-23T13:55:17;6.28;;;2.80;;
18776;SDS011;9517;51.174;4.160;2022-07-23T13:57:44;7.25;;;2.78;;
18776;SDS011;9517;51.174;4.160;2022-07-23T14:00:11;6.70;;;3.03;;
18776;SDS011;9517;51.174;4.160;2022-07-23T14:02:39;12.60;;;3.72;;
18776;SDS011;9517;51.174;4.160;2022-07-23T14:05:09;12.40;;;3.53;;
18776;SDS011;9517;51.174;4.160;2022-07-23T14:07:37;9.68;;;3.72;;
18776;SDS011;9517;51.174;4.160;2022-07-23T14:10:06;7.78;;;3.58;;
18776;SDS011;9517;51.174;4.160;2022-07-23T14:12:34;7.78;;;3.38;;
18776;SDS011;9517;51.174;4.160;2022-07-23T14:15:01;8.57;;;3.30;;
18776;SDS011;9517;51.174;4.160;2022-07-23T14:17:29;7.88;;;3.33;;
18776;SDS011;9517;51.174;4.160;2022-07-23T14:19:56;7.43;;;2.55;;
18776;SDS011;9517;51.174;4.160;2022-07-23T14:22:25;7.93;;;3.25;;
18776;SDS011;9517;51.174;4.160;2022-07-23T14:24:52;7.95;;;3.40;;
18776;SDS011;9517;51.174;4.160;2022-07-23T14:27:19;8.13;;;3.20;;
18776;SDS011;9517;51.174;4.160;2022-07-23T14:29:46;9.07;;;3.08;;
18776;SDS011;9517;51.174;4.160;2022-07-23T14:32:13;8.80;;;3.55;;
18776;SDS011;9517;51.174;4.160;2022-07-23T14:34:40;8.25;;;3.47;;
18776;SDS011;9517;51.174;4.160;2022-07-23T14:37:08;6.78;;;3.05;;
18776;SDS011;9517;51.174;4.160;2022-07-23T14:39:37;8.07;;;3.15;;
18776;SDS011;9517;51.174;4.160;2022-07-23T14:42:05;11.13;;;3.35;;
18776;SDS011;9517;51.174;4.160;2022-07-23T14:44:32;12.55;;;4.40;;
18776;SDS011;9517;51.174;4.160;2022-07-23T14:47:00;8.13;;;3.70;;
18776;SDS011;9517;51.174;4.160;2022-07-23T14:49:28;8.55;;;3.67;;
18776;SDS011;9517;51.174;4.160;2022-07-23T14:51:55;9.68;;;4.22;;
18776;SDS011;9517;51.174;4.160;2022-07-23T14:54:23;10.93;;;3.63;;
18776;SDS011;9517;51.174;4.160;2022-07-23T14:56:52;13.73;;;9.80;;
18776;SDS011;9517;51.174;4.160;2022-07-23T14:59:19;36.72;;;33.20;;
18776;SDS011;9517;51.174;4.160;2022-07-23T15:01:46;8.88;;;4.45;;
18776;SDS011;9517;51.174;4.160;2022-07-23T15:04:13;10.05;;;4.22;;
18776;SDS011;9517;51.174;4.160;2022-07-23T15:06:41;8.20;;;3.78;;